Etusivu
METAR-TAF:

METAR-TAF

Lentoasemat :

Siskiyou County Airport

Montague, Kalifornia, Yhdysvallat

Leveyspiiri: 41-46-53N, Pituuspiiri: 122-28-05W, korkeus merenpinnasta: 807 m

Tämänhetkinen sää

Tämä raportti tehtiin 54 minuuttia sitten, kello 11.53 UTC
Tuuli 5 kn pohjoisesta
Lämpötila 7°C
Kosteus 66%
Ilmanpaine 1020 hPa
Näkyvyys: 16.1 km
Pilvistä 6000 ft:n korkeudessa

METAR: KSIY 151153Z AUTO 01005KT 10SM OVC060 07/01 A3013 RMK AO2 SLP210 T00670011 10111 20050 51008

Aika: 04:47 (12:47 UTC)


TAF: puuttuu

Säähavainnot ja -ennusteet yli 4000 lentoasemalta (METAR- ja TAF-raportit).

Käytössä olevat sääasemat on merkitty karttaan keltaisilla ja punaisilla pisteillä.

Aseta hiiri pisteen päälle nähdäksesi sääaseman nimen.

Klikkaa sitten nähdäksesi säähavainnot ja -ennusteet.

Kartan vaihtaminen: klikkaa mustalla rastilla varustettuja vihreitä pisteitä, niin voit zoomata sisään; viivalla varustettua vihreää pistettä, niin voit zoomata ulos tai vihreitä nuolia, niin pääset viereisille kartoille.


METAR-TAF: